createdAt,value
2023-03-28T00:02:28.711Z,1.20
2023-03-28T00:05:00.256Z,1.27
2023-03-28T00:07:31.761Z,1.60
2023-03-28T00:10:01.974Z,1.57
2023-03-28T00:12:32.052Z,1.60
2023-03-28T00:15:05.113Z,1.27
2023-03-28T00:17:35.199Z,1.60
2023-03-28T00:20:10.752Z,1.70
2023-03-28T00:22:41.224Z,2.03
2023-03-28T00:25:13.548Z,1.80
2023-03-28T00:27:43.862Z,2.00
2023-03-28T00:30:16.769Z,1.70
2023-03-28T00:32:46.872Z,2.03
2023-03-28T00:35:17.029Z,2.00
2023-03-28T00:37:51.156Z,1.60
2023-03-28T00:40:22.168Z,2.43
2023-03-28T00:42:52.461Z,2.07
2023-03-28T00:45:27.331Z,2.17
2023-03-28T00:48:02.095Z,2.63
2023-03-28T00:50:36.965Z,2.20
2023-03-28T00:53:11.306Z,2.53
2023-03-28T00:55:45.805Z,2.85
2023-03-28T00:58:20.170Z,2.10
2023-03-28T01:00:55.026Z,1.47
2023-03-28T01:03:30.709Z,2.00
2023-03-28T01:06:03.613Z,1.83
2023-03-28T01:08:43.942Z,2.10
2023-03-28T01:11:15.517Z,1.50
2023-03-28T01:13:49.351Z,2.17
2023-03-28T01:16:25.102Z,2.60
2023-03-28T01:18:56.981Z,2.07
2023-03-28T01:22:06.691Z,2.10
2023-03-28T01:25:11.196Z,2.27
2023-03-28T01:27:45.788Z,2.27
2023-03-28T01:31:04.195Z,2.20
2023-03-28T01:34:09.757Z,1.93
2023-03-28T01:37:00.440Z,2.47
2023-03-28T01:39:56.539Z,2.55
2023-03-28T01:42:34.911Z,2.67
2023-03-28T01:45:15.285Z,2.43
2023-03-28T01:47:51.383Z,2.87
2023-03-28T01:50:26.534Z,2.60
2023-03-28T01:53:06.250Z,3.03
2023-03-28T01:55:42.080Z,3.17
2023-03-28T01:58:18.730Z,2.37
2023-03-28T02:00:58.944Z,3.63
2023-03-28T02:03:32.065Z,2.87
2023-03-28T02:06:09.620Z,2.87
2023-03-28T02:08:45.168Z,2.90
2023-03-28T02:11:22.211Z,3.10
2023-03-28T02:14:18.800Z,2.97
2023-03-28T02:16:54.963Z,3.27
2023-03-28T02:19:45.624Z,3.33
2023-03-28T02:22:41.642Z,3.35
2023-03-28T02:28:28.636Z,4.10
2023-03-28T02:31:32.536Z,3.20
2023-03-28T02:34:03.383Z,3.30
2023-03-28T02:36:38.471Z,3.73
2023-03-28T02:39:36.677Z,3.63
2023-03-28T02:42:40.535Z,3.77
2023-03-28T02:45:38.679Z,3.37
2023-03-28T02:48:24.062Z,3.70
2023-03-28T02:51:04.253Z,3.47
2023-03-28T02:53:40.412Z,5.53
2023-03-28T02:56:19.307Z,5.17
2023-03-28T02:59:12.426Z,4.23
2023-03-28T03:01:43.197Z,4.43
2023-03-28T03:04:17.526Z,4.97
2023-03-28T03:09:21.057Z,5.37
2023-03-28T03:11:51.298Z,4.80
2023-03-28T03:14:23.978Z,5.63
2023-03-28T03:16:56.006Z,4.57
2023-03-28T03:19:26.497Z,5.37
2023-03-28T03:21:57.056Z,5.10
2023-03-28T03:24:28.548Z,5.73
2023-03-28T03:27:03.272Z,4.73
2023-03-28T03:29:38.774Z,5.57
2023-03-28T03:32:14.415Z,5.20
2023-03-28T03:34:49.497Z,5.53
2023-03-28T03:37:20.133Z,6.17
2023-03-28T03:39:50.753Z,5.17
2023-03-28T03:42:29.145Z,6.07
2023-03-28T03:45:01.981Z,5.23
2023-03-28T03:47:32.294Z,5.00
2023-03-28T03:50:02.694Z,5.57
2023-03-28T03:52:36.223Z,6.03
2023-03-28T03:55:06.774Z,5.67
2023-03-28T03:57:41.679Z,5.57
2023-03-28T04:00:17.018Z,5.07
2023-03-28T04:02:50.030Z,6.50
2023-03-28T04:05:25.142Z,4.83
2023-03-28T04:08:06.468Z,5.77
2023-03-28T04:10:40.075Z,5.93
2023-03-28T04:13:10.951Z,6.00
2023-03-28T04:15:44.325Z,5.47
2023-03-28T04:18:29.941Z,6.17
2023-03-28T04:21:02.668Z,5.50
2023-03-28T04:23:48.397Z,5.45
2023-03-28T04:26:37.987Z,4.30
2023-03-28T04:29:11.359Z,6.13
2023-03-28T04:31:50.100Z,5.23
2023-03-28T04:34:57.173Z,5.67
2023-03-28T04:37:28.269Z,5.30
2023-03-28T04:40:04.374Z,5.17
2023-03-28T04:42:51.808Z,4.90
2023-03-28T04:45:29.184Z,4.87
2023-03-28T04:48:07.712Z,6.27
2023-03-28T04:50:37.888Z,5.47
2023-03-28T04:53:07.958Z,5.33
2023-03-28T04:55:40.542Z,6.20
2023-03-28T04:58:23.992Z,5.60
2023-03-28T05:00:54.504Z,5.27
2023-03-28T05:03:51.226Z,5.63
2023-03-28T05:06:21.949Z,5.50
2023-03-28T05:08:52.823Z,4.93
2023-03-28T05:11:24.526Z,5.80
2023-03-28T05:13:55.197Z,5.33
2023-03-28T05:16:34.008Z,4.23
2023-03-28T05:19:35.918Z,5.33
2023-03-28T05:22:13.773Z,7.37
2023-03-28T05:24:46.211Z,5.17
2023-03-28T05:27:21.838Z,5.33
2023-03-28T05:29:52.736Z,4.53
2023-03-28T05:32:23.370Z,4.70
2023-03-28T05:34:56.227Z,4.90
2023-03-28T05:37:30.728Z,5.37
2023-03-28T05:40:02.058Z,5.40
2023-03-28T05:42:34.764Z,5.20
2023-03-28T05:45:13.032Z,5.03
2023-03-28T05:48:02.190Z,4.47
2023-03-28T05:50:35.990Z,5.33
2023-03-28T05:53:09.319Z,4.73
2023-03-28T05:55:39.758Z,5.03
2023-03-28T05:58:10.071Z,4.73
2023-03-28T06:00:44.799Z,4.23
2023-03-28T06:03:16.523Z,3.80
2023-03-28T06:05:51.031Z,4.13
2023-03-28T06:08:27.439Z,3.93
2023-03-28T06:10:59.046Z,3.93
2023-03-28T06:13:32.528Z,3.27
2023-03-28T06:16:02.811Z,3.50
2023-03-28T06:18:38.350Z,4.47
2023-03-28T06:21:11.269Z,3.03
2023-03-28T06:23:41.541Z,3.63
2023-03-28T06:26:21.222Z,3.90
2023-03-28T06:28:51.630Z,3.47
2023-03-28T06:31:24.596Z,3.40
2023-03-28T06:33:55.073Z,3.67
2023-03-28T06:36:28.561Z,3.13
2023-03-28T06:38:59.504Z,3.77
2023-03-28T06:41:31.273Z,2.87
2023-03-28T06:44:01.728Z,3.23
2023-03-28T06:47:01.232Z,3.90
2023-03-28T06:49:31.519Z,3.57
2023-03-28T06:52:23.478Z,3.30
2023-03-28T06:54:56.114Z,2.30
2023-03-28T06:57:27.255Z,2.90
2023-03-28T07:00:11.533Z,2.40
2023-03-28T07:03:04.906Z,2.60
2023-03-28T07:05:35.573Z,2.83
2023-03-28T07:08:09.131Z,3.30
2023-03-28T07:10:39.839Z,2.30
2023-03-28T07:13:10.897Z,2.92
2023-03-28T07:15:49.709Z,2.50
2023-03-28T07:18:20.186Z,1.90
2023-03-28T07:20:58.090Z,2.67
2023-03-28T07:23:36.593Z,2.20
2023-03-28T07:26:07.200Z,1.70
2023-03-28T07:28:37.972Z,2.53
2023-03-28T07:31:08.849Z,2.33
2023-03-28T07:33:40.070Z,2.90
2023-03-28T07:36:17.164Z,2.42
2023-03-28T07:38:53.230Z,1.77
2023-03-28T07:41:25.204Z,2.38
2023-03-28T07:43:55.594Z,2.10
2023-03-28T07:46:28.167Z,2.20
2023-03-28T07:49:00.972Z,1.90
2023-03-28T07:51:31.601Z,1.85
2023-03-28T07:54:05.167Z,1.30
2023-03-28T07:56:35.590Z,2.17
2023-03-28T07:59:21.213Z,1.70
2023-03-28T08:01:55.380Z,1.95
2023-03-28T08:04:27.212Z,1.55
2023-03-28T08:07:16.504Z,1.70
2023-03-28T08:09:51.806Z,1.88
2023-03-28T08:12:26.443Z,1.10
2023-03-28T08:14:56.832Z,1.83
2023-03-28T08:17:27.685Z,1.08
2023-03-28T08:19:59.896Z,1.58
2023-03-28T08:22:30.744Z,1.30
2023-03-28T08:25:20.489Z,1.48
2023-03-28T08:27:51.176Z,1.17
2023-03-28T08:30:21.829Z,1.77
2023-03-28T08:32:58.084Z,1.73
2023-03-28T08:35:28.486Z,1.25
2023-03-28T08:38:02.239Z,1.02
2023-03-28T08:40:38.800Z,1.27
2023-03-28T08:43:35.208Z,1.17
2023-03-28T08:46:05.718Z,2.13
2023-03-28T08:48:40.334Z,1.38
2023-03-28T08:51:20.993Z,0.90
2023-03-28T08:53:55.012Z,0.80
2023-03-28T08:56:30.799Z,1.10
2023-03-28T08:59:08.715Z,1.20
2023-03-28T09:01:39.582Z,0.98
2023-03-28T09:04:10.161Z,0.68
2023-03-28T09:06:43.840Z,0.90
2023-03-28T09:09:45.723Z,0.40
2023-03-28T09:12:49.030Z,1.08
2023-03-28T09:15:33.015Z,0.60
2023-03-28T09:18:25.701Z,1.15
2023-03-28T09:21:00.691Z,0.93
2023-03-28T09:24:09.205Z,0.70
2023-03-28T09:27:04.463Z,1.30
2023-03-28T09:29:42.614Z,0.63
2023-03-28T09:32:19.170Z,0.63
2023-03-28T09:34:53.552Z,0.68
2023-03-28T09:37:34.146Z,0.73
2023-03-28T09:40:14.769Z,0.85
2023-03-28T09:43:17.400Z,0.70
2023-03-28T09:46:05.104Z,0.75
2023-03-28T09:48:54.063Z,0.63
2023-03-28T09:51:28.346Z,0.47
2023-03-28T09:53:58.731Z,0.50
2023-03-28T09:56:32.117Z,1.08
2023-03-28T09:59:15.948Z,0.60
2023-03-28T10:01:55.913Z,0.60
2023-03-28T10:04:40.179Z,1.25
2023-03-28T10:07:45.498Z,0.30
2023-03-28T10:10:32.245Z,0.65
2023-03-28T10:13:08.113Z,0.55
2023-03-28T10:15:45.250Z,0.40
2023-03-28T10:18:33.062Z,0.43
2023-03-28T10:21:41.691Z,0.85
2023-03-28T10:24:19.506Z,1.23
2023-03-28T10:26:56.958Z,0.52
2023-03-28T10:29:28.349Z,0.70
2023-03-28T10:31:58.418Z,0.57
2023-03-28T10:35:03.126Z,0.47
2023-03-28T10:37:51.141Z,0.30
2023-03-28T10:40:34.563Z,1.13
2023-03-28T10:43:44.902Z,0.38
2023-03-28T10:46:24.597Z,0.40
2023-03-28T10:49:23.206Z,0.30
2023-03-28T10:52:04.242Z,0.30
2023-03-28T10:57:30.447Z,0.40
2023-03-28T11:00:07.383Z,0.35
2023-03-28T11:03:02.394Z,0.20
2023-03-28T11:05:55.009Z,0.40
2023-03-28T11:08:50.868Z,1.00
2023-03-28T11:11:44.798Z,0.32
2023-03-28T11:14:25.321Z,0.50
2023-03-28T11:17:04.256Z,0.60
2023-03-28T11:20:22.338Z,0.30
2023-03-28T11:23:09.841Z,0.50
2023-03-28T11:26:03.190Z,0.38
2023-03-28T11:29:19.105Z,0.75
2023-03-28T11:31:59.250Z,0.60
2023-03-28T11:34:33.598Z,0.55
2023-03-28T11:37:09.695Z,0.22
2023-03-28T11:39:44.864Z,0.20
2023-03-28T11:42:30.602Z,0.28
2023-03-28T11:45:08.095Z,0.28
2023-03-28T11:47:43.236Z,0.60
2023-03-28T11:50:28.419Z,0.22
2023-03-28T11:53:16.611Z,0.50
2023-03-28T11:56:06.856Z,0.38
2023-03-28T11:59:02.734Z,0.50
2023-03-28T12:01:38.138Z,0.60
2023-03-28T12:04:13.489Z,0.30
2023-03-28T12:06:56.074Z,0.50
2023-03-28T12:09:37.150Z,0.68
2023-03-28T12:12:12.883Z,0.57
2023-03-28T12:14:56.372Z,0.60
2023-03-28T12:17:46.249Z,1.10
2023-03-28T12:20:23.630Z,0.43
2023-03-28T12:23:00.228Z,0.40
2023-03-28T12:25:56.569Z,0.57
2023-03-28T12:28:33.761Z,3.03
2023-03-28T12:31:13.765Z,0.60
2023-03-28T12:33:53.975Z,0.80
2023-03-28T12:36:58.020Z,0.30
2023-03-28T12:39:38.221Z,0.57
2023-03-28T12:42:23.567Z,0.40
2023-03-28T12:44:56.831Z,0.45
2023-03-28T12:47:34.500Z,0.55
2023-03-28T12:50:10.555Z,0.28
2023-03-28T12:52:44.052Z,0.40
2023-03-28T12:55:47.218Z,0.68
2023-03-28T12:58:28.910Z,0.47
2023-03-28T13:01:32.703Z,0.70
2023-03-28T13:04:38.706Z,1.10
2023-03-28T13:07:23.832Z,0.70
2023-03-28T13:10:07.245Z,0.43
2023-03-28T13:12:49.431Z,0.80
2023-03-28T13:15:32.058Z,0.70
2023-03-28T13:18:32.847Z,0.73
2023-03-28T13:21:08.308Z,0.50
2023-03-28T13:23:48.512Z,0.70
2023-03-28T13:26:18.593Z,0.55
2023-03-28T13:28:51.740Z,0.93
2023-03-28T13:31:24.590Z,0.60
2023-03-28T13:33:58.869Z,0.75
2023-03-28T13:36:36.289Z,0.65
2023-03-28T13:39:25.297Z,0.68
2023-03-28T13:42:03.458Z,0.55
2023-03-28T13:44:47.560Z,0.90
2023-03-28T13:47:24.262Z,0.50
2023-03-28T13:50:01.069Z,0.45
2023-03-28T13:52:34.348Z,0.32
2023-03-28T13:55:06.649Z,0.47
2023-03-28T13:57:37.020Z,0.40
2023-03-28T14:00:09.264Z,0.60
2023-03-28T14:02:45.861Z,0.73
2023-03-28T14:05:21.953Z,0.47
2023-03-28T14:07:57.112Z,0.90
2023-03-28T14:10:32.842Z,0.47
2023-03-28T14:13:05.891Z,0.65
2023-03-28T14:15:39.899Z,0.30
2023-03-28T14:18:15.142Z,0.82
2023-03-28T14:20:47.014Z,0.70
2023-03-28T14:23:32.670Z,0.60
2023-03-28T14:26:04.890Z,0.88
2023-03-28T14:28:35.448Z,0.85
2023-03-28T14:31:05.700Z,0.50
2023-03-28T14:33:40.135Z,0.80
2023-03-28T14:36:11.742Z,0.55
2023-03-28T14:38:44.333Z,0.45
2023-03-28T14:41:21.725Z,0.40
2023-03-28T14:43:55.947Z,1.20
2023-03-28T14:46:29.228Z,0.63
2023-03-28T14:49:02.986Z,0.27
2023-03-28T14:51:43.035Z,0.73
2023-03-28T14:54:28.436Z,0.82
2023-03-28T14:57:00.621Z,0.50
2023-03-28T14:59:37.709Z,0.88
2023-03-28T15:02:09.270Z,0.35
2023-03-28T15:04:39.409Z,0.50
2023-03-28T15:07:10.247Z,0.77
2023-03-28T15:09:42.922Z,0.70
2023-03-28T15:12:21.602Z,0.30
2023-03-28T15:14:51.652Z,0.60
2023-03-28T15:17:25.571Z,0.80
2023-03-28T15:20:00.037Z,0.65
2023-03-28T15:22:33.621Z,0.60
2023-03-28T15:25:06.656Z,0.68
2023-03-28T15:27:38.623Z,0.38
2023-03-28T15:30:15.891Z,0.55
2023-03-28T15:32:46.509Z,0.88
2023-03-28T15:35:31.085Z,0.52
2023-03-28T15:38:08.226Z,0.47
2023-03-28T15:40:46.364Z,0.40
2023-03-28T15:43:39.036Z,0.63
2023-03-28T15:46:14.577Z,0.45
2023-03-28T15:48:45.646Z,0.40
2023-03-28T15:51:18.863Z,0.63
2023-03-28T15:53:50.554Z,1.42
2023-03-28T15:56:28.609Z,0.50
2023-03-28T15:59:03.527Z,0.50
2023-03-28T16:01:35.972Z,0.95
2023-03-28T16:04:33.075Z,0.63
2023-03-28T16:07:13.643Z,0.43
2023-03-28T16:09:44.188Z,0.65
2023-03-28T16:12:18.290Z,0.70
2023-03-28T16:14:52.298Z,1.05
2023-03-28T16:17:33.978Z,1.05
2023-03-28T16:20:17.127Z,0.50
2023-03-28T16:22:47.703Z,0.47
2023-03-28T16:25:18.239Z,0.45
2023-03-28T16:27:51.611Z,0.70
2023-03-28T16:30:24.367Z,0.85
2023-03-28T16:32:54.408Z,0.73
2023-03-28T16:35:27.442Z,0.90
2023-03-28T16:37:57.745Z,0.80
2023-03-28T16:40:28.232Z,0.93
2023-03-28T16:43:01.526Z,1.58
2023-03-28T16:45:31.816Z,0.60
2023-03-28T16:48:01.976Z,0.80
2023-03-28T16:50:32.030Z,0.60
2023-03-28T16:53:02.420Z,0.85
2023-03-28T16:55:32.819Z,0.35
2023-03-28T16:58:05.486Z,0.60
2023-03-28T17:00:43.675Z,0.88
2023-03-28T17:03:13.973Z,0.30
2023-03-28T17:05:44.255Z,0.40
2023-03-28T17:08:14.427Z,0.43
2023-03-28T17:10:47.636Z,0.47
2023-03-28T17:13:20.274Z,0.63
2023-03-28T17:15:52.486Z,0.30
2023-03-28T17:18:23.700Z,0.43
2023-03-28T17:21:04.660Z,0.57
2023-03-28T17:23:35.557Z,0.98
2023-03-28T17:26:07.406Z,0.85
2023-03-28T17:28:42.425Z,1.13
2023-03-28T17:31:14.206Z,0.45
2023-03-28T17:33:44.524Z,0.70
2023-03-28T17:36:21.709Z,0.75
2023-03-28T17:38:53.033Z,1.10
2023-03-28T17:41:24.661Z,1.63
2023-03-28T17:44:00.694Z,1.55
2023-03-28T17:46:31.053Z,1.17
2023-03-28T17:49:01.221Z,1.38
2023-03-28T17:51:31.252Z,5.40
2023-03-28T17:54:01.504Z,4.97
2023-03-28T17:56:31.473Z,3.60
2023-03-28T17:59:04.082Z,2.58
2023-03-28T18:01:34.395Z,1.05
2023-03-28T18:04:04.474Z,1.08
2023-03-28T18:06:53.692Z,2.50
2023-03-28T18:09:24.172Z,3.28
2023-03-28T18:11:54.207Z,2.55
2023-03-28T18:14:26.875Z,1.40
2023-03-28T18:16:57.004Z,1.10
2023-03-28T18:19:27.310Z,1.05
2023-03-28T18:21:57.337Z,1.30
2023-03-28T18:24:27.396Z,0.80
2023-03-28T18:26:57.575Z,0.75
2023-03-28T18:29:31.238Z,1.85
2023-03-28T18:32:01.848Z,19.92
2023-03-28T18:34:32.202Z,16.20
2023-03-28T18:37:05.810Z,10.75
2023-03-28T18:39:37.422Z,6.43
2023-03-28T18:42:08.372Z,4.32
2023-03-28T18:44:41.175Z,4.20
2023-03-28T18:47:14.791Z,2.30
2023-03-28T18:49:44.770Z,3.08
2023-03-28T18:52:15.671Z,1.25
2023-03-28T18:54:46.976Z,1.08
2023-03-28T18:57:17.135Z,1.08
2023-03-28T18:59:52.784Z,0.90
2023-03-28T19:02:23.190Z,0.95
2023-03-28T19:04:53.292Z,0.80
2023-03-28T19:07:23.450Z,1.25
2023-03-28T19:09:53.780Z,1.00
2023-03-28T19:12:23.779Z,1.00
2023-03-28T19:14:56.517Z,1.17
2023-03-28T19:17:26.711Z,0.80
2023-03-28T19:20:00.088Z,1.10
2023-03-28T19:22:30.549Z,1.10
2023-03-28T19:25:01.306Z,1.95
2023-03-28T19:27:31.535Z,1.80
2023-03-28T19:30:04.404Z,1.70
2023-03-28T19:32:34.962Z,1.55
2023-03-28T19:35:05.184Z,1.55
2023-03-28T19:37:35.283Z,1.20
2023-03-28T19:40:09.005Z,1.40
2023-03-28T19:42:39.206Z,1.67
2023-03-28T19:45:12.846Z,1.10
2023-03-28T19:47:43.195Z,1.35
2023-03-28T19:50:13.669Z,1.42
2023-03-28T19:52:44.047Z,1.77
2023-03-28T19:55:14.228Z,2.03
2023-03-28T19:57:44.259Z,1.90
2023-03-28T20:00:20.377Z,1.90
2023-03-28T20:02:50.583Z,1.98
2023-03-28T20:05:21.083Z,1.85
2023-03-28T20:07:51.180Z,1.63
2023-03-28T20:10:21.257Z,2.28
2023-03-28T20:12:51.349Z,2.70
2023-03-28T20:15:24.042Z,2.58
2023-03-28T20:17:54.103Z,2.03
2023-03-28T20:20:24.756Z,2.42
2023-03-28T20:22:54.810Z,2.10
2023-03-28T20:25:26.213Z,1.83
2023-03-28T20:27:56.884Z,2.23
2023-03-28T20:30:29.584Z,1.80
2023-03-28T20:32:59.702Z,1.63
2023-03-28T20:35:30.015Z,1.67
2023-03-28T20:38:00.161Z,1.80
2023-03-28T20:40:30.392Z,2.00
2023-03-28T20:43:02.036Z,1.97
2023-03-28T20:45:36.151Z,1.60
2023-03-28T20:48:07.518Z,1.30
2023-03-28T20:50:39.388Z,1.70
2023-03-28T20:53:10.023Z,1.77
2023-03-28T20:55:40.575Z,1.73
2023-03-28T20:58:10.804Z,1.67
2023-03-28T21:00:43.961Z,1.27
2023-03-28T21:03:15.809Z,1.98
2023-03-28T21:05:46.866Z,1.58
2023-03-28T21:08:19.756Z,1.83
2023-03-28T21:10:54.882Z,1.27
2023-03-28T21:13:24.910Z,1.70
2023-03-28T21:15:57.942Z,1.50
2023-03-28T21:18:28.157Z,1.25
2023-03-28T21:20:58.555Z,1.80
2023-03-28T21:23:28.689Z,1.60
2023-03-28T21:25:58.811Z,1.50
2023-03-28T21:28:29.526Z,1.60
2023-03-28T21:31:03.392Z,2.22
2023-03-28T21:33:34.082Z,2.25
2023-03-28T21:36:04.618Z,1.70
2023-03-28T21:38:34.650Z,1.83
2023-03-28T21:41:04.645Z,1.23
2023-03-28T21:43:34.796Z,1.63
2023-03-28T21:46:08.372Z,1.60
2023-03-28T21:48:39.464Z,1.60
2023-03-28T21:51:09.728Z,1.20
2023-03-28T21:53:42.452Z,1.90
2023-03-28T21:56:14.908Z,1.92
2023-03-28T21:58:45.166Z,1.57
2023-03-28T22:01:19.418Z,1.23
2023-03-28T22:03:51.203Z,1.63
2023-03-28T22:06:21.914Z,1.77
2023-03-28T22:08:52.967Z,1.40
2023-03-28T22:11:30.778Z,2.03
2023-03-28T22:14:05.054Z,2.00
2023-03-28T22:16:39.766Z,1.90
2023-03-28T22:19:11.416Z,1.40
2023-03-28T22:21:41.736Z,1.80
2023-03-28T22:24:13.490Z,1.13
2023-03-28T22:26:45.156Z,1.48
2023-03-28T22:29:15.453Z,1.55
2023-03-28T22:31:48.199Z,1.85
2023-03-28T22:34:21.066Z,1.63
2023-03-28T22:36:53.528Z,1.40
2023-03-28T22:39:23.675Z,1.30
2023-03-28T22:41:54.142Z,1.80
2023-03-28T22:44:26.836Z,2.13
2023-03-28T22:47:02.688Z,1.60
2023-03-28T22:49:34.197Z,1.70
2023-03-28T22:52:06.308Z,1.40
2023-03-28T22:54:37.591Z,1.70
2023-03-28T22:57:08.399Z,1.20
2023-03-28T22:59:38.935Z,2.10
2023-03-28T23:02:11.681Z,1.27
2023-03-28T23:04:42.095Z,1.48
2023-03-28T23:07:12.633Z,1.63
2023-03-28T23:09:43.490Z,1.70
2023-03-28T23:12:13.981Z,1.00
2023-03-28T23:14:44.344Z,2.17
2023-03-28T23:17:16.944Z,1.65
2023-03-28T23:19:49.503Z,1.88
2023-03-28T23:22:20.351Z,1.60
2023-03-28T23:24:51.821Z,1.30
2023-03-28T23:27:22.644Z,1.80
2023-03-28T23:29:52.993Z,1.70
2023-03-28T23:32:25.659Z,1.20
2023-03-28T23:34:56.145Z,1.25
2023-03-28T23:37:27.760Z,1.50
2023-03-28T23:39:58.158Z,1.58
2023-03-28T23:42:28.654Z,1.58
2023-03-28T23:44:58.935Z,1.73
2023-03-28T23:47:31.605Z,1.88
2023-03-28T23:50:01.990Z,2.30
2023-03-28T23:52:32.309Z,1.50
2023-03-28T23:55:02.566Z,2.53
2023-03-28T23:57:33.129Z,1.30
